sensor_id;sensor_type;location;lat;lon;timestamp;temperature;humidity
44229;DHT22;29904;51.058;5.378;2022-10-26T00:00:04;12.80;99.90
44229;DHT22;29904;51.058;5.378;2022-10-26T00:02:32;12.90;99.90
44229;DHT22;29904;51.058;5.378;2022-10-26T00:04:57;12.90;99.90
44229;DHT22;29904;51.058;5.378;2022-10-26T00:07:23;12.80;99.90
44229;DHT22;29904;51.058;5.378;2022-10-26T00:09:50;12.90;99.90
44229;DHT22;29904;51.058;5.378;2022-10-26T00:12:16;12.80;99.90
44229;DHT22;29904;51.058;5.378;2022-10-26T00:14:42;12.80;99.90
44229;DHT22;29904;51.058;5.378;2022-10-26T00:17:08;12.80;99.90
44229;DHT22;29904;51.058;5.378;2022-10-26T00:19:33;12.70;99.90
44229;DHT22;29904;51.058;5.378;2022-10-26T00:21:59;12.70;99.90
44229;DHT22;29904;51.058;5.378;2022-10-26T00:24:25;12.60;99.90
44229;DHT22;29904;51.058;5.378;2022-10-26T00:26:51;12.60;99.90
44229;DHT22;29904;51.058;5.378;2022-10-26T00:29:17;12.60;99.90
44229;DHT22;29904;51.058;5.378;2022-10-26T00:31:45;12.60;99.90
44229;DHT22;29904;51.058;5.378;2022-10-26T00:34:12;12.60;99.90
44229;DHT22;29904;51.058;5.378;2022-10-26T00:36:37;12.60;99.90
44229;DHT22;29904;51.058;5.378;2022-10-26T00:39:05;12.60;99.90
44229;DHT22;29904;51.058;5.378;2022-10-26T00:41:32;12.60;99.90
44229;DHT22;29904;51.058;5.378;2022-10-26T00:43:59;12.60;99.90
44229;DHT22;29904;51.058;5.378;2022-10-26T00:46:25;12.60;99.90
44229;DHT22;29904;51.058;5.378;2022-10-26T00:49:01;12.60;99.90
44229;DHT22;29904;51.058;5.378;2022-10-26T00:51:39;12.50;99.90
44229;DHT22;29904;51.058;5.378;2022-10-26T00:54:10;12.50;99.90
44229;DHT22;29904;51.058;5.378;2022-10-26T00:56:39;12.50;99.90
44229;DHT22;29904;51.058;5.378;2022-10-26T00:59:09;12.60;99.90
44229;DHT22;29904;51.058;5.378;2022-10-26T01:01:38;12.70;99.90
44229;DHT22;29904;51.058;5.378;2022-10-26T01:04:06;12.70;99.90
44229;DHT22;29904;51.058;5.378;2022-10-26T01:06:33;12.70;99.90
44229;DHT22;29904;51.058;5.378;2022-10-26T01:08:59;12.80;99.90
44229;DHT22;29904;51.058;5.378;2022-10-26T01:11:25;12.80;99.90
44229;DHT22;29904;51.058;5.378;2022-10-26T01:13:53;12.80;99.90
44229;DHT22;29904;51.058;5.378;2022-10-26T01:21:34;12.90;99.90
44229;DHT22;29904;51.058;5.378;2022-10-26T01:26:57;12.90;99.90
44229;DHT22;29904;51.058;5.378;2022-10-26T01:32:14;12.90;99.90
44229;DHT22;29904;51.058;5.378;2022-10-26T01:34:58;12.90;99.90
44229;DHT22;29904;51.058;5.378;2022-10-26T01:37:29;13.00;99.90
44229;DHT22;29904;51.058;5.378;2022-10-26T01:40:08;13.00;99.90
44229;DHT22;29904;51.058;5.378;2022-10-26T01:42:36;13.00;99.90
44229;DHT22;29904;51.058;5.378;2022-10-26T01:45:07;13.00;99.90
44229;DHT22;29904;51.058;5.378;2022-10-26T01:47:36;13.00;99.90
44229;DHT22;29904;51.058;5.378;2022-10-26T01:50:03;12.90;99.90
44229;DHT22;29904;51.058;5.378;2022-10-26T01:52:32;12.90;99.90
44229;DHT22;29904;51.058;5.378;2022-10-26T01:55:32;12.80;99.90
44229;DHT22;29904;51.058;5.378;2022-10-26T01:57:52;12.80;99.90
44229;DHT22;29904;51.058;5.378;2022-10-26T02:00:19;12.80;99.90
44229;DHT22;29904;51.058;5.378;2022-10-26T02:06:08;12.80;99.90
44229;DHT22;29904;51.058;5.378;2022-10-26T02:14:11;12.70;99.90
44229;DHT22;29904;51.058;5.378;2022-10-26T02:16:57;12.70;99.90
44229;DHT22;29904;51.058;5.378;2022-10-26T02:19:37;12.70;99.90
44229;DHT22;29904;51.058;5.378;2022-10-26T02:22:21;12.80;99.90
44229;DHT22;29904;51.058;5.378;2022-10-26T02:24:50;12.80;99.90
44229;DHT22;29904;51.058;5.378;2022-10-26T02:27:20;12.80;99.90
44229;DHT22;29904;51.058;5.378;2022-10-26T02:29:49;12.80;99.90
44229;DHT22;29904;51.058;5.378;2022-10-26T02:32:16;12.70;99.90
44229;DHT22;29904;51.058;5.378;2022-10-26T02:34:45;12.70;99.90
44229;DHT22;29904;51.058;5.378;2022-10-26T02:37:14;12.70;99.90
44229;DHT22;29904;51.058;5.378;2022-10-26T02:39:40;12.70;99.90
44229;DHT22;29904;51.058;5.378;2022-10-26T02:42:08;12.70;99.90
44229;DHT22;29904;51.058;5.378;2022-10-26T02:44:50;12.70;99.90
44229;DHT22;29904;51.058;5.378;2022-10-26T02:47:19;12.70;99.90
44229;DHT22;29904;51.058;5.378;2022-10-26T02:49:47;12.70;99.90
44229;DHT22;29904;51.058;5.378;2022-10-26T02:52:30;12.70;99.90
44229;DHT22;29904;51.058;5.378;2022-10-26T02:55:08;12.70;99.90
44229;DHT22;29904;51.058;5.378;2022-10-26T02:57:38;12.70;99.90
44229;DHT22;29904;51.058;5.378;2022-10-26T03:00:09;12.70;99.90
44229;DHT22;29904;51.058;5.378;2022-10-26T03:02:36;12.70;99.90
44229;DHT22;29904;51.058;5.378;2022-10-26T03:05:18;12.70;99.90
44229;DHT22;29904;51.058;5.378;2022-10-26T03:07:44;12.80;99.90
44229;DHT22;29904;51.058;5.378;2022-10-26T03:10:10;12.80;99.90
44229;DHT22;29904;51.058;5.378;2022-10-26T03:12:36;12.80;99.90
44229;DHT22;29904;51.058;5.378;2022-10-26T03:15:03;12.80;99.90
44229;DHT22;29904;51.058;5.378;2022-10-26T03:17:29;12.80;99.90
44229;DHT22;29904;51.058;5.378;2022-10-26T03:19:55;12.80;99.90
44229;DHT22;29904;51.058;5.378;2022-10-26T03:22:21;12.80;99.90
44229;DHT22;29904;51.058;5.378;2022-10-26T03:24:47;12.80;99.90
44229;DHT22;29904;51.058;5.378;2022-10-26T03:27:15;12.80;99.90
44229;DHT22;29904;51.058;5.378;2022-10-26T03:29:40;12.90;99.90
44229;DHT22;29904;51.058;5.378;2022-10-26T03:32:06;12.90;99.90
44229;DHT22;29904;51.058;5.378;2022-10-26T03:34:34;12.90;99.90
44229;DHT22;29904;51.058;5.378;2022-10-26T03:37:00;12.90;99.90
44229;DHT22;29904;51.058;5.378;2022-10-26T03:39:25;12.90;99.90
44229;DHT22;29904;51.058;5.378;2022-10-26T03:41:53;12.90;99.90
44229;DHT22;29904;51.058;5.378;2022-10-26T03:44:19;12.90;99.90
44229;DHT22;29904;51.058;5.378;2022-10-26T03:46:45;12.90;99.90
44229;DHT22;29904;51.058;5.378;2022-10-26T03:49:13;12.90;99.90
44229;DHT22;29904;51.058;5.378;2022-10-26T03:51:38;13.00;99.90
44229;DHT22;29904;51.058;5.378;2022-10-26T03:54:04;12.90;99.90
44229;DHT22;29904;51.058;5.378;2022-10-26T03:56:30;12.90;99.90
44229;DHT22;29904;51.058;5.378;2022-10-26T03:58:56;13.00;99.90
44229;DHT22;29904;51.058;5.378;2022-10-26T04:01:22;13.00;99.90
44229;DHT22;29904;51.058;5.378;2022-10-26T04:03:49;13.00;99.90
44229;DHT22;29904;51.058;5.378;2022-10-26T04:06:15;13.10;99.90
44229;DHT22;29904;51.058;5.378;2022-10-26T04:08:41;13.10;99.90
44229;DHT22;29904;51.058;5.378;2022-10-26T04:11:07;13.10;99.90
44229;DHT22;29904;51.058;5.378;2022-10-26T04:13:32;13.10;99.90
44229;DHT22;29904;51.058;5.378;2022-10-26T04:16:00;13.10;99.90
44229;DHT22;29904;51.058;5.378;2022-10-26T04:18:26;13.10;99.90
44229;DHT22;29904;51.058;5.378;2022-10-26T04:20:51;13.10;99.90
44229;DHT22;29904;51.058;5.378;2022-10-26T04:23:19;13.20;99.90
44229;DHT22;29904;51.058;5.378;2022-10-26T04:25:45;13.20;99.90
44229;DHT22;29904;51.058;5.378;2022-10-26T04:28:12;13.20;99.90
44229;DHT22;29904;51.058;5.378;2022-10-26T04:30:38;13.20;99.90
44229;DHT22;29904;51.058;5.378;2022-10-26T04:33:05;13.20;99.90
44229;DHT22;29904;51.058;5.378;2022-10-26T04:35:31;13.20;99.90
44229;DHT22;29904;51.058;5.378;2022-10-26T04:38:02;13.30;99.90
44229;DHT22;29904;51.058;5.378;2022-10-26T04:40:28;13.20;99.90
44229;DHT22;29904;51.058;5.378;2022-10-26T04:42:54;13.20;99.90
44229;DHT22;29904;51.058;5.378;2022-10-26T04:45:20;13.20;99.90
44229;DHT22;29904;51.058;5.378;2022-10-26T04:47:46;13.20;99.90
44229;DHT22;29904;51.058;5.378;2022-10-26T04:50:12;13.30;99.90
44229;DHT22;29904;51.058;5.378;2022-10-26T04:52:38;13.30;99.90
44229;DHT22;29904;51.058;5.378;2022-10-26T04:55:05;13.30;99.90
44229;DHT22;29904;51.058;5.378;2022-10-26T04:57:32;13.30;99.90
44229;DHT22;29904;51.058;5.378;2022-10-26T04:59:59;13.30;99.90
44229;DHT22;29904;51.058;5.378;2022-10-26T05:02:25;13.30;99.90
44229;DHT22;29904;51.058;5.378;2022-10-26T05:04:51;13.30;99.90
44229;DHT22;29904;51.058;5.378;2022-10-26T05:07:17;13.30;99.90
44229;DHT22;29904;51.058;5.378;2022-10-26T05:09:42;13.30;99.90
44229;DHT22;29904;51.058;5.378;2022-10-26T05:12:10;13.40;99.90
44229;DHT22;29904;51.058;5.378;2022-10-26T05:14:36;13.40;99.90
44229;DHT22;29904;51.058;5.378;2022-10-26T05:17:01;13.40;99.90
44229;DHT22;29904;51.058;5.378;2022-10-26T05:19:27;13.40;99.90
44229;DHT22;29904;51.058;5.378;2022-10-26T05:21:53;13.40;99.90
44229;DHT22;29904;51.058;5.378;2022-10-26T05:24:19;13.50;99.90
44229;DHT22;29904;51.058;5.378;2022-10-26T05:26:45;13.50;99.90
44229;DHT22;29904;51.058;5.378;2022-10-26T05:29:10;13.50;99.90
44229;DHT22;29904;51.058;5.378;2022-10-26T05:31:36;13.60;99.90
44229;DHT22;29904;51.058;5.378;2022-10-26T05:34:02;13.60;99.90
44229;DHT22;29904;51.058;5.378;2022-10-26T05:36:28;13.60;99.90
44229;DHT22;29904;51.058;5.378;2022-10-26T05:38:57;13.70;99.90
44229;DHT22;29904;51.058;5.378;2022-10-26T05:41:22;13.80;99.90
44229;DHT22;29904;51.058;5.378;2022-10-26T05:43:48;13.90;99.90
44229;DHT22;29904;51.058;5.378;2022-10-26T05:46:13;14.00;99.90
44229;DHT22;29904;51.058;5.378;2022-10-26T05:48:39;14.20;99.90
44229;DHT22;29904;51.058;5.378;2022-10-26T05:51:05;14.30;99.90
44229;DHT22;29904;51.058;5.378;2022-10-26T05:53:30;14.40;99.90
44229;DHT22;29904;51.058;5.378;2022-10-26T05:55:59;14.50;99.90
44229;DHT22;29904;51.058;5.378;2022-10-26T05:58:24;14.60;99.90
44229;DHT22;29904;51.058;5.378;2022-10-26T06:03:53;14.70;99.90
44229;DHT22;29904;51.058;5.378;2022-10-26T06:06:22;14.80;99.90
44229;DHT22;29904;51.058;5.378;2022-10-26T06:08:48;14.80;99.90
44229;DHT22;29904;51.058;5.378;2022-10-26T06:11:14;14.90;99.90
44229;DHT22;29904;51.058;5.378;2022-10-26T06:13:42;15.00;99.90
44229;DHT22;29904;51.058;5.378;2022-10-26T06:30:08;15.10;99.90
44229;DHT22;29904;51.058;5.378;2022-10-26T06:32:38;15.10;99.90
44229;DHT22;29904;51.058;5.378;2022-10-26T06:35:51;15.10;99.90
44229;DHT22;29904;51.058;5.378;2022-10-26T06:37:58;15.10;99.90
44229;DHT22;29904;51.058;5.378;2022-10-26T06:40:27;15.10;99.90
44229;DHT22;29904;51.058;5.378;2022-10-26T06:42:56;15.20;99.90
44229;DHT22;29904;51.058;5.378;2022-10-26T06:45:22;15.20;99.90
44229;DHT22;29904;51.058;5.378;2022-10-26T06:50:29;15.10;99.90
44229;DHT22;29904;51.058;5.378;2022-10-26T06:55:45;15.00;99.90
44229;DHT22;29904;51.058;5.378;2022-10-26T06:58:18;15.00;99.90
44229;DHT22;29904;51.058;5.378;2022-10-26T07:00:47;14.90;99.90
44229;DHT22;29904;51.058;5.378;2022-10-26T07:03:13;14.90;99.90
44229;DHT22;29904;51.058;5.378;2022-10-26T07:05:39;14.90;99.90
44229;DHT22;29904;51.058;5.378;2022-10-26T07:08:05;14.90;99.90
44229;DHT22;29904;51.058;5.378;2022-10-26T07:10:31;14.90;99.90
44229;DHT22;29904;51.058;5.378;2022-10-26T07:12:57;14.80;99.90
44229;DHT22;29904;51.058;5.378;2022-10-26T07:15:22;14.90;99.90
44229;DHT22;29904;51.058;5.378;2022-10-26T07:17:48;14.90;99.90
44229;DHT22;29904;51.058;5.378;2022-10-26T07:20:16;14.90;99.90
44229;DHT22;29904;51.058;5.378;2022-10-26T07:22:43;14.90;99.90
44229;DHT22;29904;51.058;5.378;2022-10-26T07:25:11;15.00;99.90
44229;DHT22;29904;51.058;5.378;2022-10-26T07:27:37;15.00;99.90
44229;DHT22;29904;51.058;5.378;2022-10-26T07:30:03;15.00;99.90
44229;DHT22;29904;51.058;5.378;2022-10-26T07:32:31;15.00;99.90
44229;DHT22;29904;51.058;5.378;2022-10-26T07:34:57;15.10;99.90
44229;DHT22;29904;51.058;5.378;2022-10-26T07:37:23;15.10;99.90
44229;DHT22;29904;51.058;5.378;2022-10-26T07:39:48;15.10;99.90
44229;DHT22;29904;51.058;5.378;2022-10-26T07:42:16;15.20;99.90
44229;DHT22;29904;51.058;5.378;2022-10-26T07:44:42;15.20;99.90
44229;DHT22;29904;51.058;5.378;2022-10-26T07:47:07;15.30;99.90
44229;DHT22;29904;51.058;5.378;2022-10-26T07:49:33;15.30;99.90
44229;DHT22;29904;51.058;5.378;2022-10-26T07:51:59;15.30;99.90
44229;DHT22;29904;51.058;5.378;2022-10-26T07:54:24;15.40;99.90
44229;DHT22;29904;51.058;5.378;2022-10-26T07:56:50;15.40;99.90
44229;DHT22;29904;51.058;5.378;2022-10-26T07:59:16;15.50;99.90
44229;DHT22;29904;51.058;5.378;2022-10-26T08:01:43;15.50;99.90
44229;DHT22;29904;51.058;5.378;2022-10-26T08:04:09;15.60;99.90
44229;DHT22;29904;51.058;5.378;2022-10-26T08:06:34;15.60;99.90
44229;DHT22;29904;51.058;5.378;2022-10-26T08:09:00;15.60;99.90
44229;DHT22;29904;51.058;5.378;2022-10-26T08:11:28;15.60;99.90
44229;DHT22;29904;51.058;5.378;2022-10-26T08:13:54;15.70;99.90
44229;DHT22;29904;51.058;5.378;2022-10-26T08:16:21;15.70;99.90
44229;DHT22;29904;51.058;5.378;2022-10-26T08:18:50;15.70;99.90
44229;DHT22;29904;51.058;5.378;2022-10-26T08:21:16;15.80;99.90
44229;DHT22;29904;51.058;5.378;2022-10-26T08:23:42;15.80;99.90
44229;DHT22;29904;51.058;5.378;2022-10-26T08:26:09;15.90;99.90
44229;DHT22;29904;51.058;5.378;2022-10-26T08:28:38;15.90;99.90
44229;DHT22;29904;51.058;5.378;2022-10-26T08:31:07;16.00;99.90
44229;DHT22;29904;51.058;5.378;2022-10-26T08:33:32;16.00;99.90
44229;DHT22;29904;51.058;5.378;2022-10-26T08:36:00;16.10;99.90
44229;DHT22;29904;51.058;5.378;2022-10-26T08:38:26;16.10;99.90
44229;DHT22;29904;51.058;5.378;2022-10-26T08:40:55;16.20;99.90
44229;DHT22;29904;51.058;5.378;2022-10-26T08:43:32;16.20;99.90
44229;DHT22;29904;51.058;5.378;2022-10-26T08:48:37;16.30;99.90
44229;DHT22;29904;51.058;5.378;2022-10-26T08:51:20;16.30;99.90
44229;DHT22;29904;51.058;5.378;2022-10-26T08:53:56;16.40;99.90
44229;DHT22;29904;51.058;5.378;2022-10-26T08:56:26;16.50;99.90
44229;DHT22;29904;51.058;5.378;2022-10-26T08:59:04;16.50;99.90
44229;DHT22;29904;51.058;5.378;2022-10-26T09:01:32;16.60;99.90
44229;DHT22;29904;51.058;5.378;2022-10-26T09:04:01;16.70;99.90
44229;DHT22;29904;51.058;5.378;2022-10-26T09:14:13;17.00;99.90
44229;DHT22;29904;51.058;5.378;2022-10-26T09:16:50;17.00;99.90
44229;DHT22;29904;51.058;5.378;2022-10-26T09:22:02;17.10;99.90
44229;DHT22;29904;51.058;5.378;2022-10-26T09:24:32;17.30;99.90
44229;DHT22;29904;51.058;5.378;2022-10-26T09:27:10;17.30;99.90
44229;DHT22;29904;51.058;5.378;2022-10-26T09:29:42;17.40;99.90
44229;DHT22;29904;51.058;5.378;2022-10-26T09:32:17;17.50;99.90
44229;DHT22;29904;51.058;5.378;2022-10-26T09:34:47;17.60;99.90
44229;DHT22;29904;51.058;5.378;2022-10-26T09:37:26;17.70;99.90
44229;DHT22;29904;51.058;5.378;2022-10-26T09:39:57;17.80;99.90
44229;DHT22;29904;51.058;5.378;2022-10-26T09:42:43;17.90;99.90
44229;DHT22;29904;51.058;5.378;2022-10-26T09:45:19;17.90;99.90
44229;DHT22;29904;51.058;5.378;2022-10-26T09:47:52;18.10;99.90
44229;DHT22;29904;51.058;5.378;2022-10-26T09:50:35;18.10;99.90
44229;DHT22;29904;51.058;5.378;2022-10-26T09:53:03;18.30;99.90
44229;DHT22;29904;51.058;5.378;2022-10-26T09:55:30;18.40;99.90
44229;DHT22;29904;51.058;5.378;2022-10-26T09:58:01;18.40;99.90
44229;DHT22;29904;51.058;5.378;2022-10-26T10:00:30;18.50;99.90
44229;DHT22;29904;51.058;5.378;2022-10-26T10:03:00;18.50;99.90
44229;DHT22;29904;51.058;5.378;2022-10-26T10:05:33;18.60;99.90
44229;DHT22;29904;51.058;5.378;2022-10-26T10:13:24;18.80;99.90
44229;DHT22;29904;51.058;5.378;2022-10-26T10:18:26;19.00;99.90
44229;DHT22;29904;51.058;5.378;2022-10-26T10:20:56;19.00;99.90
44229;DHT22;29904;51.058;5.378;2022-10-26T10:23:31;19.10;99.90
44229;DHT22;29904;51.058;5.378;2022-10-26T10:26:06;19.20;99.90
44229;DHT22;29904;51.058;5.378;2022-10-26T10:28:33;19.10;99.90
44229;DHT22;29904;51.058;5.378;2022-10-26T10:31:02;19.20;99.90
44229;DHT22;29904;51.058;5.378;2022-10-26T10:33:36;19.20;99.90
44229;DHT22;29904;51.058;5.378;2022-10-26T10:36:06;19.20;99.90
44229;DHT22;29904;51.058;5.378;2022-10-26T10:38:37;19.30;99.90
44229;DHT22;29904;51.058;5.378;2022-10-26T10:41:04;19.30;99.90
44229;DHT22;29904;51.058;5.378;2022-10-26T10:43:31;19.30;99.90
44229;DHT22;29904;51.058;5.378;2022-10-26T10:45:57;19.40;99.90
44229;DHT22;29904;51.058;5.378;2022-10-26T10:48:27;19.50;99.90
44229;DHT22;29904;51.058;5.378;2022-10-26T10:51:02;19.50;99.90
44229;DHT22;29904;51.058;5.378;2022-10-26T10:53:43;19.50;99.90
44229;DHT22;29904;51.058;5.378;2022-10-26T11:01:28;19.40;99.90
44229;DHT22;29904;51.058;5.378;2022-10-26T11:06:50;19.40;99.90
44229;DHT22;29904;51.058;5.378;2022-10-26T11:09:20;19.50;99.90
44229;DHT22;29904;51.058;5.378;2022-10-26T11:12:02;19.60;99.90
44229;DHT22;29904;51.058;5.378;2022-10-26T11:14:36;19.70;99.90
44229;DHT22;29904;51.058;5.378;2022-10-26T11:22:18;19.70;99.90
44229;DHT22;29904;51.058;5.378;2022-10-26T11:24:48;19.80;99.90
44229;DHT22;29904;51.058;5.378;2022-10-26T11:30:19;19.90;99.90
44229;DHT22;29904;51.058;5.378;2022-10-26T11:32:51;19.90;99.90
44229;DHT22;29904;51.058;5.378;2022-10-26T11:35:25;20.10;99.90
44229;DHT22;29904;51.058;5.378;2022-10-26T11:38:02;20.10;99.90
44229;DHT22;29904;51.058;5.378;2022-10-26T11:40:46;20.30;99.90
44229;DHT22;29904;51.058;5.378;2022-10-26T11:43:18;20.40;99.90
44229;DHT22;29904;51.058;5.378;2022-10-26T11:46:05;20.50;99.90
44229;DHT22;29904;51.058;5.378;2022-10-26T11:54:04;20.90;99.90
44229;DHT22;29904;51.058;5.378;2022-10-26T11:56:43;20.90;99.90
44229;DHT22;29904;51.058;5.378;2022-10-26T11:59:20;20.90;99.90
44229;DHT22;29904;51.058;5.378;2022-10-26T12:01:52;20.90;99.90
44229;DHT22;29904;51.058;5.378;2022-10-26T12:04:21;20.90;99.90
44229;DHT22;29904;51.058;5.378;2022-10-26T12:06:48;20.90;99.90
44229;DHT22;29904;51.058;5.378;2022-10-26T12:09:31;20.90;99.90
44229;DHT22;29904;51.058;5.378;2022-10-26T12:12:08;20.90;99.90
44229;DHT22;29904;51.058;5.378;2022-10-26T12:15:04;20.90;99.90
44229;DHT22;29904;51.058;5.378;2022-10-26T12:17:50;20.90;99.90
44229;DHT22;29904;51.058;5.378;2022-10-26T12:20:47;20.90;99.90
44229;DHT22;29904;51.058;5.378;2022-10-26T12:23:17;21.00;99.90
44229;DHT22;29904;51.058;5.378;2022-10-26T12:25:46;21.20;99.90
44229;DHT22;29904;51.058;5.378;2022-10-26T12:28:40;21.30;99.90
44229;DHT22;29904;51.058;5.378;2022-10-26T12:31:44;21.40;99.90
44229;DHT22;29904;51.058;5.378;2022-10-26T12:34:13;21.50;99.90
44229;DHT22;29904;51.058;5.378;2022-10-26T12:39:31;21.50;99.90
44229;DHT22;29904;51.058;5.378;2022-10-26T13:00:32;21.70;99.90
44229;DHT22;29904;51.058;5.378;2022-10-26T13:08:42;21.90;99.90
44229;DHT22;29904;51.058;5.378;2022-10-26T13:11:18;21.90;99.90
44229;DHT22;29904;51.058;5.378;2022-10-26T13:13:56;21.90;99.90
44229;DHT22;29904;51.058;5.378;2022-10-26T13:16:25;21.90;99.90
44229;DHT22;29904;51.058;5.378;2022-10-26T13:18:52;21.80;99.90
44229;DHT22;29904;51.058;5.378;2022-10-26T13:21:19;21.70;99.90
44229;DHT22;29904;51.058;5.378;2022-10-26T13:23:58;21.60;99.90
44229;DHT22;29904;51.058;5.378;2022-10-26T13:26:31;21.50;99.90
44229;DHT22;29904;51.058;5.378;2022-10-26T13:29:09;21.50;99.90
44229;DHT22;29904;51.058;5.378;2022-10-26T13:34:10;21.50;99.90
44229;DHT22;29904;51.058;5.378;2022-10-26T13:39:31;21.50;99.90
44229;DHT22;29904;51.058;5.378;2022-10-26T13:42:01;21.50;99.90
44229;DHT22;29904;51.058;5.378;2022-10-26T13:44:32;21.40;99.90
44229;DHT22;29904;51.058;5.378;2022-10-26T13:47:07;21.40;99.90
44229;DHT22;29904;51.058;5.378;2022-10-26T13:49:44;21.20;99.90
44229;DHT22;29904;51.058;5.378;2022-10-26T13:52:15;21.20;99.90
44229;DHT22;29904;51.058;5.378;2022-10-26T13:54:58;21.20;99.90
44229;DHT22;29904;51.058;5.378;2022-10-26T13:57:35;21.30;99.90
44229;DHT22;29904;51.058;5.378;2022-10-26T14:00:16;21.30;99.90
44229;DHT22;29904;51.058;5.378;2022-10-26T14:02:43;21.20;99.90
44229;DHT22;29904;51.058;5.378;2022-10-26T14:05:11;21.20;99.90
44229;DHT22;29904;51.058;5.378;2022-10-26T14:07:54;21.20;99.90
44229;DHT22;29904;51.058;5.378;2022-10-26T14:12:52;21.20;99.90
44229;DHT22;29904;51.058;5.378;2022-10-26T14:15:25;21.10;99.90
44229;DHT22;29904;51.058;5.378;2022-10-26T14:17:53;21.00;99.90
44229;DHT22;29904;51.058;5.378;2022-10-26T14:20:22;21.00;99.90
44229;DHT22;29904;51.058;5.378;2022-10-26T14:22:50;21.00;99.90
44229;DHT22;29904;51.058;5.378;2022-10-26T14:25:30;21.00;99.90
44229;DHT22;29904;51.058;5.378;2022-10-26T14:27:56;20.90;99.90
44229;DHT22;29904;51.058;5.378;2022-10-26T14:30:28;21.00;99.90
44229;DHT22;29904;51.058;5.378;2022-10-26T14:32:55;20.90;99.90
44229;DHT22;29904;51.058;5.378;2022-10-26T14:35:31;20.90;99.90
44229;DHT22;29904;51.058;5.378;2022-10-26T14:38:01;20.90;99.90
44229;DHT22;29904;51.058;5.378;2022-10-26T14:40:30;20.90;99.90
44229;DHT22;29904;51.058;5.378;2022-10-26T14:43:00;20.80;99.90
44229;DHT22;29904;51.058;5.378;2022-10-26T14:47:55;20.80;99.90
44229;DHT22;29904;51.058;5.378;2022-10-26T14:50:23;20.80;99.90
44229;DHT22;29904;51.058;5.378;2022-10-26T14:52:54;20.80;99.90
44229;DHT22;29904;51.058;5.378;2022-10-26T14:55:23;20.70;99.90
44229;DHT22;29904;51.058;5.378;2022-10-26T14:57:51;20.80;99.90
44229;DHT22;29904;51.058;5.378;2022-10-26T15:00:24;20.70;99.90
44229;DHT22;29904;51.058;5.378;2022-10-26T15:02:54;20.70;99.90
44229;DHT22;29904;51.058;5.378;2022-10-26T15:05:26;20.70;99.90
44229;DHT22;29904;51.058;5.378;2022-10-26T15:07:58;20.60;99.90
44229;DHT22;29904;51.058;5.378;2022-10-26T15:13:26;20.60;99.90
44229;DHT22;29904;51.058;5.378;2022-10-26T15:15:55;20.50;99.90
44229;DHT22;29904;51.058;5.378;2022-10-26T15:18:27;20.50;99.90
44229;DHT22;29904;51.058;5.378;2022-10-26T15:20:55;20.50;99.90
44229;DHT22;29904;51.058;5.378;2022-10-26T15:23:22;20.50;99.90
44229;DHT22;29904;51.058;5.378;2022-10-26T15:25:59;20.40;99.90
44229;DHT22;29904;51.058;5.378;2022-10-26T15:28:40;20.30;99.90
44229;DHT22;29904;51.058;5.378;2022-10-26T15:33:39;20.10;99.90
44229;DHT22;29904;51.058;5.378;2022-10-26T15:36:29;20.10;99.90
44229;DHT22;29904;51.058;5.378;2022-10-26T15:38:57;20.10;99.90
44229;DHT22;29904;51.058;5.378;2022-10-26T15:41:29;20.00;99.90
44229;DHT22;29904;51.058;5.378;2022-10-26T15:43:57;19.90;99.90
44229;DHT22;29904;51.058;5.378;2022-10-26T15:46:29;19.90;99.90
44229;DHT22;29904;51.058;5.378;2022-10-26T15:48:58;19.80;99.90
44229;DHT22;29904;51.058;5.378;2022-10-26T15:51:24;19.70;99.90
44229;DHT22;29904;51.058;5.378;2022-10-26T15:53:50;19.70;99.90
44229;DHT22;29904;51.058;5.378;2022-10-26T15:56:18;19.70;99.90
44229;DHT22;29904;51.058;5.378;2022-10-26T15:58:45;19.80;99.90
44229;DHT22;29904;51.058;5.378;2022-10-26T16:01:16;19.70;99.90
44229;DHT22;29904;51.058;5.378;2022-10-26T16:03:42;19.80;99.90
44229;DHT22;29904;51.058;5.378;2022-10-26T16:06:14;19.70;99.90
44229;DHT22;29904;51.058;5.378;2022-10-26T16:08:49;19.70;99.90
44229;DHT22;29904;51.058;5.378;2022-10-26T16:11:16;19.70;99.90
44229;DHT22;29904;51.058;5.378;2022-10-26T16:13:42;19.70;99.90
44229;DHT22;29904;51.058;5.378;2022-10-26T16:16:12;19.60;99.90
44229;DHT22;29904;51.058;5.378;2022-10-26T16:18:38;19.50;99.90
44229;DHT22;29904;51.058;5.378;2022-10-26T16:21:04;19.40;99.90
44229;DHT22;29904;51.058;5.378;2022-10-26T16:23:30;19.20;99.90
44229;DHT22;29904;51.058;5.378;2022-10-26T16:25:56;19.20;99.90
44229;DHT22;29904;51.058;5.378;2022-10-26T16:28:22;19.10;99.90
44229;DHT22;29904;51.058;5.378;2022-10-26T16:30:47;19.00;99.90
44229;DHT22;29904;51.058;5.378;2022-10-26T16:33:13;18.80;99.90
44229;DHT22;29904;51.058;5.378;2022-10-26T16:35:39;18.80;99.90
44229;DHT22;29904;51.058;5.378;2022-10-26T16:38:05;18.70;99.90
44229;DHT22;29904;51.058;5.378;2022-10-26T16:40:31;18.60;99.90
44229;DHT22;29904;51.058;5.378;2022-10-26T16:42:57;18.50;99.90
44229;DHT22;29904;51.058;5.378;2022-10-26T16:45:22;18.40;99.90
44229;DHT22;29904;51.058;5.378;2022-10-26T16:47:48;18.30;99.90
44229;DHT22;29904;51.058;5.378;2022-10-26T16:50:14;18.20;99.90
44229;DHT22;29904;51.058;5.378;2022-10-26T16:52:39;18.10;99.90
44229;DHT22;29904;51.058;5.378;2022-10-26T16:55:07;18.10;99.90
44229;DHT22;29904;51.058;5.378;2022-10-26T16:57:36;18.00;99.90
44229;DHT22;29904;51.058;5.378;2022-10-26T17:00:04;18.00;99.90
44229;DHT22;29904;51.058;5.378;2022-10-26T17:02:32;17.90;99.90
44229;DHT22;29904;51.058;5.378;2022-10-26T17:04:58;17.90;99.90
44229;DHT22;29904;51.058;5.378;2022-10-26T17:07:24;17.80;99.90
44229;DHT22;29904;51.058;5.378;2022-10-26T17:09:49;17.90;99.90
44229;DHT22;29904;51.058;5.378;2022-10-26T17:12:15;17.80;99.90
44229;DHT22;29904;51.058;5.378;2022-10-26T17:14:41;17.70;99.90
44229;DHT22;29904;51.058;5.378;2022-10-26T17:17:07;17.70;99.90
44229;DHT22;29904;51.058;5.378;2022-10-26T17:19:33;17.60;99.90
44229;DHT22;29904;51.058;5.378;2022-10-26T17:22:00;17.50;99.90
44229;DHT22;29904;51.058;5.378;2022-10-26T17:24:27;17.50;99.90
44229;DHT22;29904;51.058;5.378;2022-10-26T17:26:55;17.40;99.90
44229;DHT22;29904;51.058;5.378;2022-10-26T17:29:21;17.40;99.90
44229;DHT22;29904;51.058;5.378;2022-10-26T17:31:47;17.40;99.90
44229;DHT22;29904;51.058;5.378;2022-10-26T17:34:12;17.30;99.90
44229;DHT22;29904;51.058;5.378;2022-10-26T17:36:38;17.30;99.90
44229;DHT22;29904;51.058;5.378;2022-10-26T17:39:04;17.20;99.90
44229;DHT22;29904;51.058;5.378;2022-10-26T17:41:31;17.20;99.90
44229;DHT22;29904;51.058;5.378;2022-10-26T17:43:57;17.10;99.90
44229;DHT22;29904;51.058;5.378;2022-10-26T17:46:24;17.10;99.90
44229;DHT22;29904;51.058;5.378;2022-10-26T17:48:55;17.10;99.90
44229;DHT22;29904;51.058;5.378;2022-10-26T17:51:21;17.00;99.90